createdAt,value
2023-05-10T00:00:35.737Z,100200.72
2023-05-10T00:03:02.171Z,100184.38
2023-05-10T00:05:28.546Z,100187.94
2023-05-10T00:07:54.927Z,100190.13
2023-05-10T00:10:21.290Z,100188.81
2023-05-10T00:12:47.716Z,100180.53
2023-05-10T00:15:14.154Z,100184.88
2023-05-10T00:17:40.541Z,100185.09
2023-05-10T00:20:06.931Z,100184.22
2023-05-10T00:22:33.355Z,100186.72
2023-05-10T00:27:26.213Z,100182.16
2023-05-10T00:29:52.604Z,100180.28
2023-05-10T00:32:19.213Z,100188.19
2023-05-10T00:34:45.850Z,100185.75
2023-05-10T00:37:12.293Z,100186.88
2023-05-10T00:39:38.691Z,100183.50
2023-05-10T00:42:05.548Z,100191.22
2023-05-10T00:44:32.415Z,100186.03
2023-05-10T00:46:58.910Z,100182.84
2023-05-10T00:49:25.374Z,100180.31
2023-05-10T00:51:51.738Z,100181.31
2023-05-10T00:54:18.213Z,100189.13
2023-05-10T00:56:49.632Z,100185.00
2023-05-10T00:59:17.289Z,100188.56
2023-05-10T01:01:44.027Z,100187.06
2023-05-10T01:04:10.976Z,100189.41
2023-05-10T01:06:37.367Z,100196.84
2023-05-10T01:09:03.810Z,100198.84
2023-05-10T01:11:30.310Z,100201.41
2023-05-10T01:13:56.924Z,100193.31
2023-05-10T01:16:23.381Z,100192.66
2023-05-10T01:18:49.759Z,100190.75
2023-05-10T01:21:17.089Z,100187.16
2023-05-10T01:23:43.497Z,100195.09
2023-05-10T01:26:09.827Z,100189.63
2023-05-10T01:28:36.462Z,100196.78
2023-05-10T01:31:02.852Z,100196.69
2023-05-10T01:33:29.808Z,100201.41
2023-05-10T01:35:56.144Z,100203.94
2023-05-10T01:38:22.520Z,100198.59
2023-05-10T01:40:48.880Z,100204.47
2023-05-10T01:43:15.248Z,100207.16
2023-05-10T01:45:41.667Z,100203.22
2023-05-10T01:48:08.472Z,100205.13
2023-05-10T01:50:34.937Z,100212.41
2023-05-10T01:53:01.299Z,100209.69
2023-05-10T01:55:27.879Z,100209.81
2023-05-10T01:57:55.432Z,100209.59
2023-05-10T02:00:22.528Z,100211.78
2023-05-10T02:02:51.791Z,100211.91
2023-05-10T02:05:18.372Z,100201.75
2023-05-10T02:07:44.802Z,100198.25
2023-05-10T02:10:11.517Z,100198.09
2023-05-10T02:12:37.943Z,100209.16
2023-05-10T02:15:04.321Z,100204.63
2023-05-10T02:17:30.837Z,100212.03
2023-05-10T02:19:57.236Z,100208.38
2023-05-10T02:22:23.574Z,100205.03
2023-05-10T02:24:49.948Z,100204.53
2023-05-10T02:27:16.335Z,100209.69
2023-05-10T02:29:42.738Z,100215.56
2023-05-10T02:32:09.192Z,100211.38
2023-05-10T02:34:35.673Z,100215.28
2023-05-10T02:37:02.074Z,100220.00
2023-05-10T02:39:29.475Z,100219.00
2023-05-10T02:41:57.045Z,100227.16
2023-05-10T02:44:23.398Z,100222.25
2023-05-10T02:46:49.781Z,100226.16
2023-05-10T02:49:16.234Z,100217.69
2023-05-10T02:51:42.693Z,100222.56
2023-05-10T02:54:09.034Z,100220.56
2023-05-10T02:56:35.486Z,100222.19
2023-05-10T02:59:01.885Z,100214.94
2023-05-10T03:01:28.310Z,100215.41
2023-05-10T03:03:54.691Z,100223.41
2023-05-10T03:06:21.141Z,100219.84
2023-05-10T03:08:47.518Z,100209.06
2023-05-10T03:11:13.958Z,100209.97
2023-05-10T03:13:41.210Z,100224.56
2023-05-10T03:16:08.810Z,100228.03
2023-05-10T03:18:35.927Z,100226.00
2023-05-10T03:21:03.487Z,100225.75
2023-05-10T03:23:29.883Z,100223.25
2023-05-10T03:25:56.549Z,100224.16
2023-05-10T03:28:23.294Z,100230.13
2023-05-10T03:30:50.011Z,100233.84
2023-05-10T03:33:16.521Z,100237.63
2023-05-10T03:35:46.724Z,100229.41
2023-05-10T03:38:13.935Z,100236.06
2023-05-10T03:40:40.402Z,100241.72
2023-05-10T03:43:07.712Z,100240.44
2023-05-10T03:45:34.113Z,100239.00
2023-05-10T03:48:00.540Z,100244.00
2023-05-10T03:50:27.298Z,100238.19
2023-05-10T03:52:54.846Z,100247.59
2023-05-10T03:55:21.493Z,100245.53
2023-05-10T03:57:50.428Z,100236.81
2023-05-10T04:00:17.667Z,100248.44
2023-05-10T04:02:47.315Z,100246.75
2023-05-10T04:05:18.713Z,100245.94
2023-05-10T04:07:45.357Z,100250.53
2023-05-10T04:10:12.055Z,100256.38
2023-05-10T04:12:38.464Z,100252.72
2023-05-10T04:15:04.839Z,100248.88
2023-05-10T04:17:32.241Z,100257.03
2023-05-10T04:19:58.692Z,100254.91
2023-05-10T04:22:25.088Z,100258.34
2023-05-10T04:24:51.509Z,100255.31
2023-05-10T04:27:17.898Z,100256.22
2023-05-10T04:29:44.297Z,100253.03
2023-05-10T04:32:11.102Z,100260.81
2023-05-10T04:34:37.479Z,100258.31
2023-05-10T04:37:03.854Z,100265.84
2023-05-10T04:39:30.264Z,100258.03
2023-05-10T04:41:56.729Z,100259.94
2023-05-10T04:44:23.123Z,100262.22
2023-05-10T04:46:49.505Z,100262.34
2023-05-10T04:49:15.963Z,100260.69
2023-05-10T04:51:42.373Z,100261.72
2023-05-10T04:54:09.169Z,100255.38
2023-05-10T04:56:35.559Z,100264.78
2023-05-10T04:59:01.950Z,100264.59
2023-05-10T05:01:28.344Z,100270.78
2023-05-10T05:03:54.849Z,100278.56
2023-05-10T05:06:25.726Z,100263.97
2023-05-10T05:08:52.069Z,100273.28
2023-05-10T05:11:18.607Z,100274.16
2023-05-10T05:13:44.977Z,100282.59
2023-05-10T05:16:12.479Z,100284.69
2023-05-10T05:18:39.039Z,100289.53
2023-05-10T05:21:05.434Z,100282.63
2023-05-10T05:23:31.791Z,100288.97
2023-05-10T05:25:58.254Z,100283.97
2023-05-10T05:28:24.592Z,100292.59
2023-05-10T05:30:50.974Z,100295.50
2023-05-10T05:33:17.609Z,100292.84
2023-05-10T05:35:48.491Z,100302.34
2023-05-10T05:38:15.351Z,100299.53
2023-05-10T05:40:41.809Z,100301.91
2023-05-10T05:43:08.380Z,100297.44
2023-05-10T05:45:34.757Z,100312.28
2023-05-10T05:48:01.181Z,100305.31
2023-05-10T05:50:27.577Z,100316.47
2023-05-10T05:52:54.011Z,100313.13
2023-05-10T05:55:20.395Z,100319.47
2023-05-10T05:57:46.776Z,100318.28
2023-05-10T06:00:13.131Z,100320.72
2023-05-10T06:02:39.631Z,100312.72
2023-05-10T06:05:06.123Z,100321.28
2023-05-10T06:07:32.762Z,100323.81
2023-05-10T06:09:59.121Z,100327.25
2023-05-10T06:12:25.528Z,100334.78
2023-05-10T06:14:52.025Z,100340.28
2023-05-10T06:17:19.082Z,100335.88
2023-05-10T06:19:45.444Z,100338.94
2023-05-10T06:22:11.801Z,100340.66
2023-05-10T06:24:38.231Z,100343.31
2023-05-10T06:27:05.080Z,100342.97
2023-05-10T06:29:31.491Z,100344.13
2023-05-10T06:31:58.001Z,100342.31
2023-05-10T06:34:24.445Z,100346.16
2023-05-10T06:36:50.887Z,100355.41
2023-05-10T06:39:17.446Z,100356.13
2023-05-10T06:41:43.898Z,100351.81
2023-05-10T06:44:10.247Z,100359.69
2023-05-10T06:46:36.769Z,100353.44
2023-05-10T06:49:03.311Z,100359.28
2023-05-10T06:51:29.717Z,100361.59
2023-05-10T06:53:56.118Z,100363.16
2023-05-10T06:56:22.700Z,100366.91
2023-05-10T06:58:49.407Z,100361.19
2023-05-10T07:01:16.105Z,100359.16
2023-05-10T07:03:42.642Z,100363.16
2023-05-10T07:06:15.626Z,100368.53
2023-05-10T07:08:48.454Z,100369.69
2023-05-10T07:11:14.790Z,100368.44
2023-05-10T07:13:44.928Z,100374.13
2023-05-10T07:16:11.530Z,100372.16
2023-05-10T07:18:37.932Z,100375.03
2023-05-10T07:21:04.377Z,100370.75
2023-05-10T07:23:31.220Z,100375.34
2023-05-10T07:25:58.410Z,100378.91
2023-05-10T07:28:27.669Z,100383.72
2023-05-10T07:30:54.063Z,100372.66
2023-05-10T07:33:20.543Z,100374.38
2023-05-10T07:35:47.100Z,100385.00
2023-05-10T07:38:13.513Z,100375.84
2023-05-10T07:40:39.859Z,100377.47
2023-05-10T07:43:06.317Z,100381.00
2023-05-10T07:45:32.772Z,100374.91
2023-05-10T07:47:59.357Z,100384.94
2023-05-10T07:50:25.774Z,100378.44
2023-05-10T07:52:52.167Z,100383.66
2023-05-10T07:55:18.637Z,100390.34
2023-05-10T07:57:45.030Z,100384.41
2023-05-10T08:00:11.425Z,100385.28
2023-05-10T08:02:40.943Z,100388.34
2023-05-10T08:05:07.441Z,100391.81
2023-05-10T08:07:34.554Z,100394.41
2023-05-10T08:10:01.018Z,100395.09
2023-05-10T08:12:27.423Z,100387.47
2023-05-10T08:14:58.924Z,100397.50
2023-05-10T08:17:27.134Z,100399.72
2023-05-10T08:19:53.591Z,100403.91
2023-05-10T08:22:19.974Z,100402.50
2023-05-10T08:24:46.552Z,100411.00
2023-05-10T08:27:12.931Z,100413.44
2023-05-10T08:29:49.709Z,100400.09
2023-05-10T08:32:17.098Z,100419.00
2023-05-10T08:34:43.527Z,100402.91
2023-05-10T08:37:11.439Z,100418.91
2023-05-10T08:39:37.743Z,100411.53
2023-05-10T08:42:04.188Z,100412.63
2023-05-10T08:44:31.272Z,100421.63
2023-05-10T08:46:57.660Z,100424.53
2023-05-10T08:49:24.097Z,100437.38
2023-05-10T08:51:50.540Z,100426.19
2023-05-10T08:54:16.928Z,100443.81
2023-05-10T08:56:43.264Z,100436.47
2023-05-10T08:59:09.788Z,100446.97
2023-05-10T09:01:36.114Z,100444.88
2023-05-10T09:04:02.616Z,100456.22
2023-05-10T09:06:30.002Z,100456.28
2023-05-10T09:08:57.028Z,100461.44
2023-05-10T09:11:23.432Z,100464.72
2023-05-10T09:13:49.803Z,100456.53
2023-05-10T09:16:22.010Z,100468.09
2023-05-10T09:18:48.907Z,100461.91
2023-05-10T09:21:15.394Z,100470.41
2023-05-10T09:23:41.809Z,100461.81
2023-05-10T09:26:08.214Z,100468.13
2023-05-10T09:28:34.848Z,100469.88
2023-05-10T09:31:01.261Z,100470.34
2023-05-10T09:33:27.603Z,100467.69
2023-05-10T09:35:53.966Z,100480.72
2023-05-10T09:38:20.492Z,100474.41
2023-05-10T09:40:46.828Z,100484.91
2023-05-10T09:43:13.432Z,100480.38
2023-05-10T09:45:39.826Z,100483.78
2023-05-10T09:48:06.392Z,100483.78
2023-05-10T09:50:32.921Z,100497.66
2023-05-10T09:52:59.540Z,100487.88
2023-05-10T09:55:25.879Z,100488.84
2023-05-10T09:57:52.233Z,100488.94
2023-05-10T10:00:18.918Z,100492.75
2023-05-10T10:02:45.306Z,100490.56
2023-05-10T10:05:12.005Z,100490.44
2023-05-10T10:07:38.610Z,100506.53
2023-05-10T10:10:05.816Z,100505.81
2023-05-10T10:12:32.575Z,100502.34
2023-05-10T10:14:58.978Z,100509.53
2023-05-10T10:17:25.447Z,100509.94
2023-05-10T10:19:52.240Z,100510.88
2023-05-10T10:22:18.602Z,100511.56
2023-05-10T10:24:45.011Z,100504.28
2023-05-10T10:27:11.424Z,100514.94
2023-05-10T10:29:37.818Z,100526.00
2023-05-10T10:32:04.211Z,100518.84
2023-05-10T10:34:30.589Z,100513.25
2023-05-10T10:36:57.498Z,100514.59
2023-05-10T10:39:24.005Z,100515.41
2023-05-10T10:41:50.509Z,100512.25
2023-05-10T10:44:16.888Z,100516.00
2023-05-10T10:46:43.337Z,100516.16
2023-05-10T10:49:09.781Z,100514.63
2023-05-10T10:51:36.132Z,100518.88
2023-05-10T10:54:02.501Z,100519.00
2023-05-10T10:56:28.847Z,100521.78
2023-05-10T10:58:57.013Z,100516.59
2023-05-10T11:01:23.420Z,100522.13
2023-05-10T11:03:49.833Z,100525.78
2023-05-10T11:06:16.247Z,100530.66
2023-05-10T11:08:43.864Z,100530.56
2023-05-10T11:11:10.412Z,100525.41
2023-05-10T11:13:36.937Z,100525.28
2023-05-10T11:16:03.307Z,100528.09
2023-05-10T11:18:29.831Z,100535.28
2023-05-10T11:20:56.231Z,100518.00
2023-05-10T11:23:22.865Z,100520.66
2023-05-10T11:25:49.289Z,100532.22
2023-05-10T11:28:15.734Z,100530.28
2023-05-10T11:30:42.244Z,100527.34
2023-05-10T11:33:08.746Z,100541.06
2023-05-10T11:35:35.453Z,100542.06
2023-05-10T11:38:01.852Z,100542.75
2023-05-10T11:40:28.228Z,100544.19
2023-05-10T11:42:54.699Z,100539.34
2023-05-10T11:45:22.688Z,100535.41
2023-05-10T11:47:49.061Z,100547.53
2023-05-10T11:50:15.792Z,100559.53
2023-05-10T11:52:42.546Z,100559.78
2023-05-10T11:55:08.922Z,100564.66
2023-05-10T11:57:35.583Z,100553.97
2023-05-10T12:00:04.570Z,100549.53
2023-05-10T12:02:34.607Z,100553.19
2023-05-10T12:05:01.434Z,100550.50
2023-05-10T12:07:27.924Z,100555.72
2023-05-10T12:09:54.330Z,100555.44
2023-05-10T12:12:20.791Z,100553.34
2023-05-10T12:14:47.144Z,100549.56
2023-05-10T12:17:14.308Z,100551.41
2023-05-10T12:19:40.711Z,100548.38
2023-05-10T12:22:07.123Z,100551.09
2023-05-10T12:24:33.481Z,100554.69
2023-05-10T12:27:00.062Z,100552.78
2023-05-10T12:29:26.493Z,100553.03
2023-05-10T12:31:52.911Z,100552.00
2023-05-10T12:34:19.315Z,100551.59
2023-05-10T12:36:45.799Z,100562.09
2023-05-10T12:39:12.665Z,100556.38
2023-05-10T12:41:40.906Z,100553.19
2023-05-10T12:44:09.184Z,100559.53
2023-05-10T12:46:35.894Z,100553.38
2023-05-10T12:49:09.113Z,100548.13
2023-05-10T12:51:36.326Z,100543.91
2023-05-10T12:54:02.680Z,100553.59
2023-05-10T12:56:29.097Z,100552.44
2023-05-10T12:58:55.589Z,100550.94
2023-05-10T13:01:22.082Z,100551.69
2023-05-10T13:03:48.574Z,100557.94
2023-05-10T13:06:14.990Z,100556.41
2023-05-10T13:08:41.423Z,100563.50
2023-05-10T13:11:07.826Z,100564.28
2023-05-10T13:13:34.174Z,100567.09
2023-05-10T13:16:00.730Z,100560.56
2023-05-10T13:18:27.666Z,100563.25
2023-05-10T13:20:54.316Z,100562.94
2023-05-10T13:23:21.027Z,100558.75
2023-05-10T13:25:47.449Z,100562.00
2023-05-10T13:28:14.080Z,100560.44
2023-05-10T13:30:40.490Z,100561.22
2023-05-10T13:33:06.917Z,100558.84
2023-05-10T13:35:33.473Z,100563.47
2023-05-10T13:37:59.867Z,100553.13
2023-05-10T13:40:26.251Z,100554.00
2023-05-10T13:42:53.666Z,100559.84
2023-05-10T13:45:20.182Z,100560.16
2023-05-10T13:47:46.961Z,100556.66
2023-05-10T13:50:13.336Z,100561.56
2023-05-10T13:52:39.700Z,100557.66
2023-05-10T13:55:06.411Z,100551.75
2023-05-10T13:57:32.778Z,100545.59
2023-05-10T13:59:59.172Z,100537.72
2023-05-10T14:02:26.159Z,100541.53
2023-05-10T14:04:52.671Z,100550.09
2023-05-10T14:07:19.410Z,100542.16
2023-05-10T14:09:45.922Z,100547.00
2023-05-10T14:12:12.451Z,100542.56
2023-05-10T14:14:38.915Z,100543.66
2023-05-10T14:17:05.540Z,100540.09
2023-05-10T14:19:35.389Z,100534.13
2023-05-10T14:22:01.783Z,100533.59
2023-05-10T14:24:28.214Z,100528.94
2023-05-10T14:26:54.968Z,100527.25
2023-05-10T14:29:21.338Z,100542.28
2023-05-10T14:31:47.826Z,100529.47
2023-05-10T14:34:14.292Z,100545.91
2023-05-10T14:36:42.154Z,100544.75
2023-05-10T14:39:08.962Z,100542.72
2023-05-10T14:41:35.368Z,100542.22
2023-05-10T14:44:02.527Z,100540.31
2023-05-10T14:46:29.060Z,100537.22
2023-05-10T14:48:55.592Z,100537.41
2023-05-10T14:51:22.876Z,100529.41
2023-05-10T14:53:50.452Z,100533.00
2023-05-10T14:56:16.867Z,100535.66
2023-05-10T14:58:43.241Z,100540.03
2023-05-10T15:01:09.612Z,100538.91
2023-05-10T15:03:36.746Z,100531.00
2023-05-10T15:06:03.655Z,100532.34
2023-05-10T15:08:30.010Z,100532.34
2023-05-10T15:10:56.972Z,100538.19
2023-05-10T15:13:23.354Z,100538.00
2023-05-10T15:15:49.991Z,100538.25
2023-05-10T15:18:16.652Z,100531.16
2023-05-10T15:20:43.107Z,100539.47
2023-05-10T15:23:09.559Z,100532.63
2023-05-10T15:25:38.139Z,100528.78
2023-05-10T15:28:04.698Z,100535.19
2023-05-10T15:30:31.195Z,100559.16
2023-05-10T15:32:57.684Z,100562.31
2023-05-10T15:35:24.124Z,100569.75
2023-05-10T15:37:50.686Z,100584.41
2023-05-10T15:40:17.116Z,100576.66
2023-05-10T15:42:43.485Z,100583.97
2023-05-10T15:45:09.860Z,100584.09
2023-05-10T15:47:36.301Z,100583.44
2023-05-10T15:50:03.047Z,100596.91
2023-05-10T15:52:29.672Z,100592.28
2023-05-10T15:54:56.549Z,100592.13
2023-05-10T15:57:22.938Z,100600.25
2023-05-10T15:59:49.342Z,100603.94
2023-05-10T16:02:16.066Z,100594.00
2023-05-10T16:04:42.533Z,100614.16
2023-05-10T16:07:08.917Z,100617.34
2023-05-10T16:09:35.519Z,100619.25
2023-05-10T16:12:04.497Z,100625.88
2023-05-10T16:14:30.984Z,100624.91
2023-05-10T16:16:57.536Z,100644.72
2023-05-10T16:19:24.070Z,100624.22
2023-05-10T16:21:50.623Z,100628.72
2023-05-10T16:24:17.119Z,100636.41
2023-05-10T16:26:43.643Z,100648.44
2023-05-10T16:29:10.225Z,100640.50
2023-05-10T16:31:36.850Z,100635.97
2023-05-10T16:34:03.345Z,100627.88
2023-05-10T16:36:29.842Z,100624.13
2023-05-10T16:38:56.550Z,100628.47
2023-05-10T16:41:22.979Z,100634.59
2023-05-10T16:43:49.640Z,100630.06
2023-05-10T16:46:16.163Z,100631.91
2023-05-10T16:48:42.625Z,100630.34
2023-05-10T16:51:09.173Z,100638.06
2023-05-10T16:53:36.196Z,100638.91
2023-05-10T16:56:02.854Z,100646.00
2023-05-10T16:58:29.606Z,100645.34
2023-05-10T17:00:56.069Z,100649.81
2023-05-10T17:03:22.818Z,100641.06
2023-05-10T17:05:49.310Z,100643.53
2023-05-10T17:08:15.861Z,100636.59
2023-05-10T17:10:42.252Z,100656.09
2023-05-10T17:13:10.468Z,100643.28
2023-05-10T17:15:37.683Z,100637.03
2023-05-10T17:18:04.749Z,100652.59
2023-05-10T17:20:31.383Z,100658.91
2023-05-10T17:22:57.805Z,100658.81
2023-05-10T17:25:24.189Z,100662.31
2023-05-10T17:27:50.571Z,100669.44
2023-05-10T17:30:19.288Z,100665.88
2023-05-10T17:32:45.721Z,100666.81
2023-05-10T17:35:12.205Z,100660.50
2023-05-10T17:37:38.604Z,100668.44
2023-05-10T17:40:07.306Z,100658.56
2023-05-10T17:42:33.738Z,100663.84
2023-05-10T17:45:00.157Z,100668.88
2023-05-10T17:47:26.674Z,100665.44
2023-05-10T17:49:53.033Z,100670.94
2023-05-10T17:52:19.395Z,100678.13
2023-05-10T17:54:45.828Z,100674.50
2023-05-10T17:57:12.275Z,100663.88
2023-05-10T17:59:38.657Z,100666.41
2023-05-10T18:02:05.098Z,100672.72
2023-05-10T18:04:31.536Z,100674.00
2023-05-10T18:07:01.444Z,100677.75
2023-05-10T18:09:27.973Z,100677.13
2023-05-10T18:11:54.343Z,100685.16
2023-05-10T18:14:36.012Z,100690.03
2023-05-10T18:17:06.897Z,100688.06
2023-05-10T18:19:33.486Z,100683.38
2023-05-10T18:21:59.887Z,100691.63
2023-05-10T18:24:37.550Z,100692.31
2023-05-10T18:27:05.897Z,100689.94
2023-05-10T18:29:32.280Z,100690.25
2023-05-10T18:31:58.685Z,100698.06
2023-05-10T18:34:25.062Z,100692.75
2023-05-10T18:36:52.427Z,100696.53
2023-05-10T18:39:18.972Z,100692.97
2023-05-10T18:41:45.819Z,100695.63
2023-05-10T18:44:12.324Z,100693.94
2023-05-10T18:46:39.006Z,100692.16
2023-05-10T18:49:08.340Z,100695.00
2023-05-10T18:51:34.732Z,100703.97
2023-05-10T18:54:01.368Z,100700.31
2023-05-10T18:56:27.905Z,100709.19
2023-05-10T18:58:54.453Z,100707.28
2023-05-10T19:01:21.494Z,100720.78
2023-05-10T19:03:47.989Z,100709.84
2023-05-10T19:06:14.425Z,100717.06
2023-05-10T19:08:41.033Z,100716.06
2023-05-10T19:11:07.502Z,100717.16
2023-05-10T19:13:33.892Z,100724.22
2023-05-10T19:16:00.338Z,100719.91
2023-05-10T19:18:27.212Z,100723.41
2023-05-10T19:20:53.865Z,100723.47
2023-05-10T19:23:20.278Z,100716.06
2023-05-10T19:25:47.327Z,100719.44
2023-05-10T19:28:13.695Z,100723.91
2023-05-10T19:30:40.222Z,100727.56
2023-05-10T19:33:06.801Z,100723.22
2023-05-10T19:35:33.291Z,100727.75
2023-05-10T19:37:59.702Z,100730.13
2023-05-10T19:40:26.106Z,100723.75
2023-05-10T19:42:52.801Z,100731.72
2023-05-10T19:45:20.181Z,100729.31
2023-05-10T19:47:47.005Z,100730.22
2023-05-10T19:50:13.804Z,100730.81
2023-05-10T19:52:40.298Z,100731.88
2023-05-10T19:55:07.101Z,100728.47
2023-05-10T19:57:33.478Z,100736.63
2023-05-10T19:59:59.908Z,100729.31
2023-05-10T20:02:26.289Z,100730.72
2023-05-10T20:04:52.709Z,100739.69
2023-05-10T20:07:19.121Z,100736.72
2023-05-10T20:09:45.725Z,100735.31
2023-05-10T20:12:12.603Z,100728.94
2023-05-10T20:14:38.937Z,100733.50
2023-05-10T20:17:05.570Z,100722.97
2023-05-10T20:19:32.232Z,100735.66
2023-05-10T20:21:58.903Z,100729.25
2023-05-10T20:24:25.380Z,100732.69
2023-05-10T20:26:51.722Z,100724.03
2023-05-10T20:29:18.108Z,100728.38
2023-05-10T20:31:44.528Z,100736.72
2023-05-10T20:34:11.204Z,100733.09
2023-05-10T20:36:38.203Z,100731.41
2023-05-10T20:39:04.572Z,100733.09
2023-05-10T20:41:30.997Z,100734.00
2023-05-10T20:43:57.397Z,100732.31
2023-05-10T20:46:24.164Z,100738.69
2023-05-10T20:48:50.537Z,100738.78
2023-05-10T20:51:16.981Z,100754.78
2023-05-10T20:53:43.403Z,100749.44
2023-05-10T20:56:09.983Z,100750.22
2023-05-10T20:58:36.468Z,100747.66
2023-05-10T21:01:02.847Z,100739.75
2023-05-10T21:03:29.376Z,100742.22
2023-05-10T21:05:55.828Z,100745.06
2023-05-10T21:08:22.317Z,100751.06
2023-05-10T21:10:48.740Z,100747.53
2023-05-10T21:13:15.092Z,100744.97
2023-05-10T21:15:41.528Z,100742.34
2023-05-10T21:18:08.330Z,100741.50
2023-05-10T21:20:34.765Z,100746.91
2023-05-10T21:23:01.190Z,100745.88
2023-05-10T21:25:27.807Z,100748.44
2023-05-10T21:27:54.731Z,100751.94
2023-05-10T21:30:21.153Z,100741.22
2023-05-10T21:32:47.622Z,100746.72
2023-05-10T21:35:14.110Z,100758.47
2023-05-10T21:37:40.944Z,100753.06
2023-05-10T21:40:07.347Z,100754.88
2023-05-10T21:42:33.826Z,100748.53
2023-05-10T21:45:00.199Z,100748.72
2023-05-10T21:47:26.552Z,100754.91
2023-05-10T21:49:53.534Z,100748.72
2023-05-10T21:52:20.236Z,100753.06
2023-05-10T21:54:46.914Z,100753.94
2023-05-10T21:57:13.306Z,100746.84
2023-05-10T21:59:39.923Z,100750.25
2023-05-10T22:02:06.948Z,100743.25
2023-05-10T22:04:33.424Z,100752.16
2023-05-10T22:06:59.860Z,100749.50
2023-05-10T22:09:26.298Z,100757.50
2023-05-10T22:11:52.645Z,100745.63
2023-05-10T22:14:19.082Z,100743.78
2023-05-10T22:16:45.481Z,100747.47
2023-05-10T22:19:12.182Z,100747.44
2023-05-10T22:21:38.815Z,100755.53
2023-05-10T22:24:05.272Z,100751.91
2023-05-10T22:26:31.761Z,100753.78
2023-05-10T22:28:58.228Z,100751.09
2023-05-10T22:31:24.706Z,100749.41
2023-05-10T22:33:51.127Z,100751.19
2023-05-10T22:36:17.669Z,100765.53
2023-05-10T22:38:44.084Z,100771.84
2023-05-10T22:41:10.453Z,100767.41
2023-05-10T22:43:36.827Z,100767.38
2023-05-10T22:46:03.296Z,100768.16
2023-05-10T22:48:29.695Z,100767.25
2023-05-10T22:50:56.254Z,100762.78
2023-05-10T22:53:22.653Z,100771.56
2023-05-10T22:55:48.946Z,100765.38
2023-05-10T22:58:15.391Z,100776.03
2023-05-10T23:00:41.742Z,100765.44
2023-05-10T23:03:08.195Z,100768.25
2023-05-10T23:05:34.510Z,100765.56
2023-05-10T23:08:00.924Z,100770.84
2023-05-10T23:10:27.347Z,100770.00
2023-05-10T23:12:55.519Z,100768.06
2023-05-10T23:15:21.917Z,100784.19
2023-05-10T23:17:48.350Z,100773.56
2023-05-10T23:20:15.127Z,100775.28
2023-05-10T23:22:41.608Z,100773.53
2023-05-10T23:25:07.930Z,100771.78
2023-05-10T23:27:34.325Z,100775.22
2023-05-10T23:30:00.758Z,100768.19
2023-05-10T23:32:27.233Z,100767.91
2023-05-10T23:34:53.797Z,100769.59
2023-05-10T23:37:20.171Z,100775.91
2023-05-10T23:39:46.561Z,100771.28
2023-05-10T23:42:12.937Z,100766.00
2023-05-10T23:44:39.342Z,100768.50
2023-05-10T23:47:06.046Z,100769.63
2023-05-10T23:49:32.416Z,100761.69
2023-05-10T23:51:58.810Z,100765.44
2023-05-10T23:54:25.204Z,100754.72
2023-05-10T23:56:51.729Z,100753.97
2023-05-10T23:59:18.061Z,100749.66
